createdAt,value
2023-05-21T00:01:42.784Z,100.00
2023-05-21T00:04:09.853Z,100.00
2023-05-21T00:06:37.263Z,100.00
2023-05-21T00:09:05.605Z,100.00
2023-05-21T00:11:33.038Z,100.00
2023-05-21T00:14:00.013Z,100.00
2023-05-21T00:16:27.005Z,100.00
2023-05-21T00:18:54.823Z,100.00
2023-05-21T00:21:26.426Z,100.00
2023-05-21T00:23:57.172Z,100.00
2023-05-21T00:26:27.037Z,100.00
2023-05-21T00:28:57.182Z,100.00
2023-05-21T00:31:24.134Z,100.00
2023-05-21T00:33:51.067Z,100.00
2023-05-21T00:36:18.068Z,100.00
2023-05-21T00:38:46.004Z,100.00
2023-05-21T00:41:13.864Z,100.00
2023-05-21T00:43:41.290Z,100.00
2023-05-21T00:46:12.303Z,100.00
2023-05-21T00:48:39.912Z,100.00
2023-05-21T00:51:07.224Z,100.00
2023-05-21T00:53:36.994Z,100.00
2023-05-21T00:56:04.791Z,100.00
2023-05-21T00:58:33.681Z,100.00
2023-05-21T01:01:04.087Z,100.00
2023-05-21T01:03:31.106Z,100.00
2023-05-21T01:06:00.275Z,100.00
2023-05-21T01:08:29.129Z,100.00
2023-05-21T01:10:57.741Z,100.00
2023-05-21T01:13:25.178Z,100.00
2023-05-21T01:15:53.952Z,100.00
2023-05-21T01:18:22.217Z,100.00
2023-05-21T01:20:49.405Z,100.00
2023-05-21T01:23:20.645Z,100.00
2023-05-21T01:25:48.070Z,100.00
2023-05-21T01:28:15.087Z,100.00
2023-05-21T01:30:44.079Z,100.00
2023-05-21T01:33:36.664Z,100.00
2023-05-21T01:36:16.137Z,100.00
2023-05-21T01:38:49.146Z,100.00
2023-05-21T01:41:18.751Z,100.00
2023-05-21T01:43:47.604Z,100.00
2023-05-21T01:46:20.203Z,100.00
2023-05-21T01:48:48.499Z,100.00
2023-05-21T01:51:16.385Z,100.00
2023-05-21T01:53:43.294Z,100.00
2023-05-21T01:56:11.548Z,100.00
2023-05-21T01:58:38.761Z,100.00
2023-05-21T02:01:05.771Z,100.00
2023-05-21T02:03:32.863Z,100.00
2023-05-21T02:05:59.792Z,100.00
2023-05-21T02:08:27.601Z,100.00
2023-05-21T02:10:55.131Z,100.00
2023-05-21T02:13:25.793Z,100.00
2023-05-21T02:15:55.065Z,100.00
2023-05-21T02:18:23.399Z,100.00
2023-05-21T02:20:50.614Z,100.00
2023-05-21T02:23:17.580Z,100.00
2023-05-21T02:25:44.707Z,100.00
2023-05-21T02:28:12.995Z,100.00
2023-05-21T02:30:39.958Z,100.00
2023-05-21T02:33:09.419Z,100.00
2023-05-21T02:35:36.965Z,100.00
2023-05-21T02:38:04.131Z,100.00
2023-05-21T02:40:31.136Z,100.00
2023-05-21T02:42:58.013Z,100.00
2023-05-21T02:45:25.109Z,100.00
2023-05-21T02:47:52.766Z,100.00
2023-05-21T02:50:20.336Z,100.00
2023-05-21T02:52:56.022Z,100.00
2023-05-21T02:55:23.127Z,100.00
2023-05-21T02:57:50.724Z,100.00
2023-05-21T03:00:17.766Z,100.00
2023-05-21T03:02:45.042Z,100.00
2023-05-21T03:05:12.489Z,100.00
2023-05-21T03:07:39.429Z,100.00
2023-05-21T03:10:06.833Z,100.00
2023-05-21T03:12:33.858Z,100.00
2023-05-21T03:15:01.045Z,100.00
2023-05-21T03:17:28.316Z,100.00
2023-05-21T03:19:55.253Z,100.00
2023-05-21T03:22:22.344Z,100.00
2023-05-21T03:24:49.339Z,100.00
2023-05-21T03:27:17.554Z,100.00
2023-05-21T03:29:46.227Z,100.00
2023-05-21T03:32:14.167Z,100.00
2023-05-21T03:34:42.091Z,100.00
2023-05-21T03:37:09.022Z,100.00
2023-05-21T03:39:36.663Z,100.00
2023-05-21T03:42:03.717Z,100.00
2023-05-21T03:44:45.172Z,100.00
2023-05-21T03:47:36.470Z,100.00
2023-05-21T03:50:06.489Z,100.00
2023-05-21T03:52:33.408Z,100.00
2023-05-21T03:55:01.091Z,100.00
2023-05-21T03:57:28.405Z,100.00
2023-05-21T03:59:56.164Z,100.00
2023-05-21T04:02:23.501Z,100.00
2023-05-21T04:04:51.941Z,100.00
2023-05-21T04:07:22.508Z,100.00
2023-05-21T04:09:49.660Z,100.00
2023-05-21T04:12:18.301Z,100.00
2023-05-21T04:14:45.230Z,100.00
2023-05-21T04:17:13.010Z,100.00
2023-05-21T04:19:40.288Z,100.00
2023-05-21T04:22:07.190Z,100.00
2023-05-21T04:24:34.083Z,100.00
2023-05-21T04:27:10.156Z,100.00
2023-05-21T04:29:37.921Z,100.00
2023-05-21T04:32:07.325Z,100.00
2023-05-21T04:34:34.275Z,100.00
2023-05-21T04:37:02.513Z,100.00
2023-05-21T04:39:31.704Z,100.00
2023-05-21T04:41:58.632Z,100.00
2023-05-21T04:44:26.178Z,100.00
2023-05-21T04:46:55.010Z,100.00
2023-05-21T04:49:22.048Z,100.00
2023-05-21T04:51:49.694Z,100.00
2023-05-21T04:54:16.747Z,100.00
2023-05-21T04:56:44.748Z,100.00
2023-05-21T04:59:11.834Z,100.00
2023-05-21T05:01:38.810Z,100.00
2023-05-21T05:04:06.510Z,100.00
2023-05-21T05:06:33.407Z,100.00
2023-05-21T05:09:00.385Z,100.00
2023-05-21T05:11:27.370Z,100.00
2023-05-21T05:13:54.403Z,100.00
2023-05-21T05:16:25.864Z,100.00
2023-05-21T05:18:56.190Z,100.00
2023-05-21T05:21:24.045Z,100.00
2023-05-21T05:23:51.321Z,100.00
2023-05-21T05:26:23.206Z,100.00
2023-05-21T05:28:50.261Z,100.00
2023-05-21T05:31:18.384Z,100.00
2023-05-21T05:33:45.693Z,100.00
2023-05-21T05:36:12.752Z,100.00
2023-05-21T05:38:40.471Z,100.00
2023-05-21T05:41:07.542Z,100.00
2023-05-21T05:43:34.572Z,100.00
2023-05-21T05:46:01.830Z,100.00
2023-05-21T05:48:28.801Z,100.00
2023-05-21T05:50:57.378Z,100.00
2023-05-21T05:53:26.089Z,100.00
2023-05-21T05:55:53.578Z,100.00
2023-05-21T05:58:20.513Z,100.00
2023-05-21T06:00:57.653Z,100.00
2023-05-21T06:03:28.922Z,100.00
2023-05-21T06:05:57.012Z,100.00
2023-05-21T06:08:24.898Z,100.00
2023-05-21T06:10:52.607Z,100.00
2023-05-21T06:13:19.541Z,100.00
2023-05-21T06:15:46.491Z,100.00
2023-05-21T06:18:14.688Z,100.00
2023-05-21T06:20:42.405Z,100.00
2023-05-21T06:23:09.886Z,100.00
2023-05-21T06:25:38.436Z,100.00
2023-05-21T06:28:05.571Z,100.00
2023-05-21T06:30:33.678Z,100.00
2023-05-21T06:33:01.057Z,100.00
2023-05-21T06:35:28.028Z,100.00
2023-05-21T06:37:55.092Z,100.00
2023-05-21T06:40:22.178Z,100.00
2023-05-21T06:42:51.321Z,100.00
2023-05-21T06:45:37.131Z,100.00
2023-05-21T06:48:18.505Z,100.00
2023-05-21T06:50:47.437Z,100.00
2023-05-21T06:53:16.604Z,100.00
2023-05-21T06:55:45.606Z,100.00
2023-05-21T06:58:22.512Z,100.00
2023-05-21T07:00:49.675Z,100.00
2023-05-21T07:03:17.567Z,100.00
2023-05-21T07:05:44.716Z,100.00
2023-05-21T07:08:12.259Z,100.00
2023-05-21T07:10:39.713Z,100.00
2023-05-21T07:13:07.303Z,100.00
2023-05-21T07:15:34.498Z,100.00
2023-05-21T07:18:02.561Z,100.00
2023-05-21T07:20:30.131Z,100.00
2023-05-21T07:23:01.674Z,100.00
2023-05-21T07:25:28.691Z,100.00
2023-05-21T07:27:55.728Z,100.00
2023-05-21T07:30:22.764Z,100.00
2023-05-21T07:32:49.751Z,100.00
2023-05-21T07:35:16.752Z,100.00
2023-05-21T07:37:43.954Z,100.00
2023-05-21T07:40:11.337Z,100.00
2023-05-21T07:42:38.610Z,100.00
2023-05-21T07:45:07.289Z,100.00
2023-05-21T07:47:39.627Z,100.00
2023-05-21T07:50:06.999Z,100.00
2023-05-21T07:52:34.378Z,100.00
2023-05-21T07:55:02.610Z,100.00
2023-05-21T07:57:33.087Z,100.00
2023-05-21T08:00:03.235Z,100.00
2023-05-21T08:02:31.617Z,100.00
2023-05-21T08:04:59.240Z,100.00
2023-05-21T08:07:26.844Z,100.00
2023-05-21T08:09:55.761Z,100.00
2023-05-21T08:12:23.203Z,100.00
2023-05-21T08:14:50.244Z,100.00
2023-05-21T08:17:17.684Z,100.00
2023-05-21T08:19:44.746Z,100.00
2023-05-21T08:22:11.683Z,100.00
2023-05-21T08:24:41.975Z,100.00
2023-05-21T08:27:08.967Z,100.00
2023-05-21T08:29:35.954Z,100.00
2023-05-21T08:32:13.392Z,100.00
2023-05-21T08:34:40.604Z,100.00
2023-05-21T08:37:24.499Z,100.00
2023-05-21T08:40:01.802Z,100.00
2023-05-21T08:42:42.756Z,99.93
2023-05-21T08:45:14.532Z,99.24
2023-05-21T08:47:44.293Z,98.43
2023-05-21T08:50:16.812Z,98.44
2023-05-21T08:52:43.909Z,96.44
2023-05-21T08:55:11.255Z,97.71
2023-05-21T08:57:44.183Z,98.84
2023-05-21T09:00:14.403Z,95.69
2023-05-21T09:02:44.183Z,95.85
2023-05-21T09:05:12.706Z,94.95
2023-05-21T09:07:46.138Z,94.34
2023-05-21T09:10:37.514Z,93.99
2023-05-21T09:13:05.230Z,92.92
2023-05-21T09:15:32.946Z,93.03
2023-05-21T09:18:00.042Z,91.35
2023-05-21T09:20:49.952Z,92.31
2023-05-21T09:23:20.508Z,94.82
2023-05-21T09:25:49.884Z,93.22
2023-05-21T09:28:25.396Z,90.86
2023-05-21T09:30:54.536Z,92.54
2023-05-21T09:33:26.438Z,89.66
2023-05-21T09:35:53.460Z,89.94
2023-05-21T09:38:22.829Z,88.45
2023-05-21T09:40:49.951Z,90.44
2023-05-21T09:43:18.189Z,89.88
2023-05-21T09:45:56.336Z,86.45
2023-05-21T09:48:36.719Z,86.34
2023-05-21T09:51:18.879Z,85.74
2023-05-21T09:53:54.885Z,82.81
2023-05-21T09:56:24.864Z,82.53
2023-05-21T09:58:57.075Z,82.32
2023-05-21T10:01:24.880Z,83.10
2023-05-21T10:03:56.786Z,82.25
2023-05-21T10:06:28.375Z,80.68
2023-05-21T10:08:57.164Z,81.49
2023-05-21T10:11:27.358Z,80.60
2023-05-21T10:14:07.715Z,79.79
2023-05-21T10:16:36.460Z,82.11
2023-05-21T10:19:05.477Z,79.46
2023-05-21T10:21:33.676Z,78.96
2023-05-21T10:24:02.823Z,79.20
2023-05-21T10:26:30.760Z,79.79
2023-05-21T10:29:00.621Z,79.34
2023-05-21T10:31:30.463Z,80.08
2023-05-21T10:33:58.075Z,81.06
2023-05-21T10:36:28.016Z,80.02
2023-05-21T10:38:57.113Z,81.77
2023-05-21T10:41:26.391Z,80.09
2023-05-21T10:44:22.240Z,81.45
2023-05-21T10:47:13.570Z,80.34
2023-05-21T10:49:57.710Z,80.06
2023-05-21T10:53:21.957Z,78.48
2023-05-21T10:55:58.880Z,77.80
2023-05-21T10:58:48.839Z,80.03
2023-05-21T11:01:19.533Z,77.42
2023-05-21T11:03:48.741Z,77.16
2023-05-21T11:06:26.754Z,76.37
2023-05-21T11:08:55.612Z,76.74
2023-05-21T11:11:45.289Z,74.95
2023-05-21T11:14:39.539Z,74.31
2023-05-21T11:17:09.634Z,73.66
2023-05-21T11:19:54.994Z,71.65
2023-05-21T11:22:27.998Z,71.05
2023-05-21T11:24:56.490Z,70.34
2023-05-21T11:27:42.141Z,70.30
2023-05-21T11:30:10.381Z,70.21
2023-05-21T11:32:58.071Z,68.28
2023-05-21T11:35:25.093Z,68.23
2023-05-21T11:37:54.361Z,69.33
2023-05-21T11:40:30.732Z,69.55
2023-05-21T11:42:57.848Z,68.82
2023-05-21T11:45:31.369Z,69.88
2023-05-21T11:47:58.784Z,69.35
2023-05-21T11:50:26.247Z,69.30
2023-05-21T11:52:53.224Z,68.32
2023-05-21T11:55:25.236Z,66.63
2023-05-21T11:57:55.795Z,66.46
2023-05-21T12:00:23.364Z,67.58
2023-05-21T12:02:55.944Z,67.07
2023-05-21T12:05:24.128Z,66.10
2023-05-21T12:07:51.265Z,64.95
2023-05-21T12:10:21.965Z,66.36
2023-05-21T12:12:55.515Z,66.36
2023-05-21T12:15:24.650Z,67.49
2023-05-21T12:17:53.371Z,66.95
2023-05-21T12:20:20.496Z,66.67
2023-05-21T12:22:49.356Z,67.03
2023-05-21T12:25:20.408Z,67.00
2023-05-21T12:27:49.947Z,68.57
2023-05-21T12:30:17.047Z,67.68
2023-05-21T12:32:44.563Z,66.76
2023-05-21T12:35:21.864Z,65.13
2023-05-21T12:37:50.936Z,66.74
2023-05-21T12:40:18.456Z,67.08
2023-05-21T12:42:45.555Z,66.63
2023-05-21T12:45:12.909Z,65.26
2023-05-21T12:47:39.856Z,65.84
2023-05-21T12:50:14.188Z,65.14
2023-05-21T12:52:44.540Z,64.27
2023-05-21T12:55:13.753Z,65.78
2023-05-21T12:57:40.727Z,65.80
2023-05-21T13:00:08.286Z,65.20
2023-05-21T13:02:42.339Z,65.35
2023-05-21T13:05:11.856Z,64.21
2023-05-21T13:07:40.148Z,63.59
2023-05-21T13:10:07.978Z,64.33
2023-05-21T13:12:35.040Z,64.51
2023-05-21T13:15:04.257Z,64.17
2023-05-21T13:17:31.454Z,64.47
2023-05-21T13:20:09.520Z,65.16
2023-05-21T13:22:42.769Z,66.53
2023-05-21T13:25:21.599Z,64.53
2023-05-21T13:27:50.165Z,65.20
2023-05-21T13:30:17.645Z,65.43
2023-05-21T13:32:45.160Z,65.03
2023-05-21T13:35:12.496Z,63.66
2023-05-21T13:37:40.997Z,62.56
2023-05-21T13:40:15.524Z,63.59
2023-05-21T13:42:45.688Z,62.70
2023-05-21T13:45:14.542Z,62.10
2023-05-21T13:47:42.541Z,62.37
2023-05-21T13:50:10.224Z,62.71
2023-05-21T13:52:38.104Z,62.86
2023-05-21T13:55:06.090Z,62.84
2023-05-21T13:57:33.094Z,62.77
2023-05-21T14:00:01.169Z,63.53
2023-05-21T14:02:28.567Z,64.18
2023-05-21T14:04:55.563Z,64.35
2023-05-21T14:07:22.734Z,63.90
2023-05-21T14:09:49.827Z,65.75
2023-05-21T14:12:17.320Z,66.08
2023-05-21T14:14:44.437Z,66.24
2023-05-21T14:17:11.366Z,66.91
2023-05-21T14:19:38.237Z,66.31
2023-05-21T14:22:05.449Z,67.65
2023-05-21T14:24:32.581Z,67.78
2023-05-21T14:26:59.468Z,67.67
2023-05-21T14:29:26.387Z,66.45
2023-05-21T14:31:53.365Z,66.58
2023-05-21T14:34:20.380Z,66.39
2023-05-21T14:36:47.345Z,67.00
2023-05-21T14:39:14.461Z,67.07
2023-05-21T14:41:41.571Z,67.38
2023-05-21T14:44:08.534Z,68.38
2023-05-21T14:46:36.944Z,67.05
2023-05-21T14:49:04.197Z,67.03
2023-05-21T14:51:31.878Z,66.00
2023-05-21T14:53:59.008Z,66.75
2023-05-21T14:56:27.991Z,66.85
2023-05-21T14:58:55.247Z,67.14
2023-05-21T15:01:22.480Z,67.23
2023-05-21T15:03:49.736Z,66.73
2023-05-21T15:06:16.851Z,66.65
2023-05-21T15:08:43.718Z,66.55
2023-05-21T15:11:10.795Z,66.38
2023-05-21T15:13:38.448Z,66.68
2023-05-21T15:16:06.361Z,66.89
2023-05-21T15:18:33.678Z,66.76
2023-05-21T15:21:00.663Z,67.57
2023-05-21T15:23:27.703Z,67.01
2023-05-21T15:25:54.745Z,67.11
2023-05-21T15:28:23.225Z,67.72
2023-05-21T15:30:50.449Z,67.43
2023-05-21T15:33:17.690Z,68.43
2023-05-21T15:35:45.042Z,68.25
2023-05-21T15:38:12.533Z,68.12
2023-05-21T15:40:42.186Z,68.54
2023-05-21T15:43:09.180Z,67.92
2023-05-21T15:45:36.951Z,67.98
2023-05-21T15:48:04.480Z,68.35
2023-05-21T15:50:31.583Z,67.33
2023-05-21T15:52:58.547Z,66.73
2023-05-21T15:55:25.508Z,67.72
2023-05-21T15:57:52.548Z,67.14
2023-05-21T16:00:19.622Z,67.55
2023-05-21T16:02:46.614Z,67.95
2023-05-21T16:05:13.640Z,68.74
2023-05-21T16:07:40.652Z,68.03
2023-05-21T16:10:09.904Z,68.26
2023-05-21T16:12:36.842Z,68.12
2023-05-21T16:15:04.014Z,69.12
2023-05-21T16:17:31.034Z,69.03
2023-05-21T16:19:57.968Z,68.52
2023-05-21T16:22:25.326Z,68.27
2023-05-21T16:24:52.271Z,68.53
2023-05-21T16:27:19.266Z,68.67
2023-05-21T16:29:46.245Z,69.74
2023-05-21T16:32:14.380Z,68.70
2023-05-21T16:34:41.410Z,69.04
2023-05-21T16:37:10.012Z,68.06
2023-05-21T16:39:37.561Z,69.42
2023-05-21T16:42:04.663Z,69.43
2023-05-21T16:44:32.489Z,69.42
2023-05-21T16:47:00.359Z,67.62
2023-05-21T16:49:28.060Z,67.28
2023-05-21T16:51:55.122Z,67.80
2023-05-21T16:54:22.193Z,67.25
2023-05-21T16:56:49.270Z,67.92
2023-05-21T16:59:16.422Z,67.42
2023-05-21T17:01:43.430Z,68.40
2023-05-21T17:04:11.199Z,68.48
2023-05-21T17:06:38.099Z,67.77
2023-05-21T17:09:05.131Z,68.27
2023-05-21T17:11:32.112Z,69.22
2023-05-21T17:13:59.191Z,69.16
2023-05-21T17:16:26.254Z,68.74
2023-05-21T17:18:53.308Z,68.71
2023-05-21T17:21:20.279Z,68.84
2023-05-21T17:23:47.188Z,69.31
2023-05-21T17:26:17.063Z,69.22
2023-05-21T17:28:44.045Z,69.00
2023-05-21T17:31:11.220Z,69.06
2023-05-21T17:33:39.728Z,69.74
2023-05-21T17:36:06.917Z,69.71
2023-05-21T17:38:35.305Z,70.09
2023-05-21T17:41:02.477Z,69.94
2023-05-21T17:43:32.076Z,69.99
2023-05-21T17:45:59.129Z,69.88
2023-05-21T17:48:26.399Z,69.96
2023-05-21T17:50:53.472Z,70.67
2023-05-21T17:53:20.450Z,70.13
2023-05-21T17:55:47.476Z,70.46
2023-05-21T17:58:16.041Z,71.10
2023-05-21T18:00:43.079Z,70.05
2023-05-21T18:03:10.116Z,70.07
2023-05-21T18:05:37.455Z,70.45
2023-05-21T18:08:06.710Z,70.91
2023-05-21T18:10:33.733Z,70.80
2023-05-21T18:13:00.767Z,70.55
2023-05-21T18:15:27.762Z,70.94
2023-05-21T18:17:54.765Z,71.51
2023-05-21T18:20:21.827Z,71.24
2023-05-21T18:22:48.780Z,71.57
2023-05-21T18:25:15.769Z,71.44
2023-05-21T18:27:42.901Z,72.49
2023-05-21T18:30:10.298Z,72.69
2023-05-21T18:32:40.129Z,72.01
2023-05-21T18:35:11.576Z,72.60
2023-05-21T18:37:41.847Z,72.34
2023-05-21T18:40:09.414Z,72.93
2023-05-21T18:42:36.547Z,73.13
2023-05-21T18:45:27.489Z,72.94
2023-05-21T18:47:54.435Z,72.53
2023-05-21T18:50:21.676Z,74.11
2023-05-21T18:52:48.810Z,74.24
2023-05-21T18:55:15.780Z,74.15
2023-05-21T18:57:42.698Z,74.12
2023-05-21T19:00:10.271Z,74.85
2023-05-21T19:02:37.645Z,74.86
2023-05-21T19:05:05.080Z,74.95
2023-05-21T19:07:32.097Z,75.19
2023-05-21T19:10:03.415Z,75.90
2023-05-21T19:12:31.672Z,76.15
2023-05-21T19:14:58.664Z,76.50
2023-05-21T19:17:25.817Z,76.60
2023-05-21T19:19:56.353Z,76.93
2023-05-21T19:22:27.295Z,76.83
2023-05-21T19:24:55.329Z,77.60
2023-05-21T19:27:22.429Z,77.96
2023-05-21T19:29:49.509Z,78.43
2023-05-21T19:32:16.997Z,79.63
2023-05-21T19:34:43.901Z,78.93
2023-05-21T19:37:10.834Z,79.82
2023-05-21T19:39:39.531Z,80.18
2023-05-21T19:42:27.380Z,80.79
2023-05-21T19:44:56.778Z,81.26
2023-05-21T19:47:24.170Z,82.27
2023-05-21T19:49:53.750Z,83.38
2023-05-21T19:52:20.698Z,83.80
2023-05-21T19:54:47.643Z,84.16
2023-05-21T19:57:14.659Z,84.98
2023-05-21T19:59:41.795Z,85.13
2023-05-21T20:02:13.475Z,86.32
2023-05-21T20:04:40.667Z,87.31
2023-05-21T20:07:07.870Z,87.35
2023-05-21T20:09:37.267Z,88.49
2023-05-21T20:12:04.601Z,88.58
2023-05-21T20:14:33.740Z,88.92
2023-05-21T20:17:01.867Z,89.07
2023-05-21T20:19:29.242Z,89.48
2023-05-21T20:21:56.271Z,90.18
2023-05-21T20:24:23.258Z,91.79
2023-05-21T20:26:50.335Z,92.59
2023-05-21T20:29:17.240Z,93.26
2023-05-21T20:31:44.466Z,95.08
2023-05-21T20:34:12.453Z,95.96
2023-05-21T20:36:40.640Z,95.78
2023-05-21T20:39:09.436Z,95.25
2023-05-21T20:41:37.910Z,95.04
2023-05-21T20:44:05.695Z,95.96
2023-05-21T20:46:34.390Z,96.10
2023-05-21T20:49:01.413Z,96.37
2023-05-21T20:51:28.462Z,96.30
2023-05-21T20:53:55.618Z,96.59
2023-05-21T20:56:39.977Z,96.18
2023-05-21T20:59:10.868Z,96.51
2023-05-21T21:01:39.442Z,97.21
2023-05-21T21:04:06.714Z,96.13
2023-05-21T21:06:34.105Z,97.73
2023-05-21T21:09:01.059Z,98.60
2023-05-21T21:11:28.021Z,99.17
2023-05-21T21:13:54.931Z,100.00
2023-05-21T21:16:21.917Z,100.00
2023-05-21T21:18:48.940Z,100.00
2023-05-21T21:21:15.992Z,99.37
2023-05-21T21:23:42.931Z,100.00
2023-05-21T21:26:09.965Z,100.00
2023-05-21T21:28:36.901Z,100.00
2023-05-21T21:31:03.901Z,100.00
2023-05-21T21:33:30.818Z,100.00
2023-05-21T21:35:57.808Z,100.00
2023-05-21T21:38:25.292Z,100.00
2023-05-21T21:40:52.268Z,99.35
2023-05-21T21:43:19.238Z,100.00
2023-05-21T21:45:46.252Z,100.00
2023-05-21T21:48:13.244Z,100.00
2023-05-21T21:50:40.335Z,100.00
2023-05-21T21:53:07.425Z,100.00
2023-05-21T21:55:34.360Z,100.00
2023-05-21T21:58:01.378Z,100.00
2023-05-21T22:00:28.317Z,100.00
2023-05-21T22:02:55.272Z,100.00
2023-05-21T22:05:22.277Z,100.00
2023-05-21T22:07:49.208Z,100.00
2023-05-21T22:10:16.775Z,100.00
2023-05-21T22:12:44.658Z,100.00
2023-05-21T22:15:18.787Z,100.00
2023-05-21T22:17:47.268Z,100.00
2023-05-21T22:20:15.086Z,100.00
2023-05-21T22:22:42.063Z,100.00
2023-05-21T22:25:09.079Z,100.00
2023-05-21T22:27:36.648Z,100.00
2023-05-21T22:30:05.085Z,100.00
2023-05-21T22:32:32.003Z,100.00
2023-05-21T22:34:58.905Z,100.00
2023-05-21T22:37:26.501Z,100.00
2023-05-21T22:39:53.436Z,100.00
2023-05-21T22:42:20.631Z,100.00
2023-05-21T22:44:47.499Z,100.00
2023-05-21T22:47:14.917Z,100.00
2023-05-21T22:49:42.258Z,100.00
2023-05-21T22:52:12.425Z,100.00
2023-05-21T22:54:39.348Z,100.00
2023-05-21T22:57:09.415Z,100.00
2023-05-21T22:59:36.507Z,100.00
2023-05-21T23:02:03.979Z,100.00
2023-05-21T23:04:43.107Z,100.00
2023-05-21T23:07:11.633Z,100.00
2023-05-21T23:09:38.800Z,100.00
2023-05-21T23:12:06.297Z,100.00
2023-05-21T23:14:33.570Z,100.00
2023-05-21T23:17:02.392Z,100.00
2023-05-21T23:19:33.097Z,100.00
2023-05-21T23:22:00.705Z,100.00
2023-05-21T23:24:29.717Z,100.00
2023-05-21T23:27:02.096Z,100.00
2023-05-21T23:29:30.265Z,100.00
2023-05-21T23:31:57.457Z,100.00
2023-05-21T23:34:25.065Z,100.00
2023-05-21T23:36:52.368Z,100.00
2023-05-21T23:39:19.341Z,100.00
2023-05-21T23:41:46.415Z,100.00
2023-05-21T23:44:13.294Z,100.00
2023-05-21T23:46:40.165Z,100.00
2023-05-21T23:49:07.083Z,100.00
2023-05-21T23:51:34.070Z,100.00
2023-05-21T23:54:01.291Z,100.00
2023-05-21T23:56:28.162Z,100.00
2023-05-21T23:58:55.011Z,100.00
